createdAt,value
2019-06-20T00:02:39.112Z,99947.49
2019-06-20T00:07:45.079Z,99950.30
2019-06-20T00:13:00.003Z,99942.60
2019-06-20T00:17:58.866Z,99938.13
2019-06-20T00:23:04.935Z,99935.67
2019-06-20T00:28:10.906Z,99922.58
2019-06-20T00:33:18.107Z,99930.36
2019-06-20T00:38:23.973Z,99916.84
2019-06-20T00:43:29.950Z,99914.84
2019-06-20T00:48:36.017Z,99919.27
2019-06-20T00:53:42.142Z,99921.34
2019-06-20T00:58:48.165Z,99917.09
2019-06-20T01:03:54.352Z,99918.84
2019-06-20T01:09:00.208Z,99914.30
2019-06-20T01:14:07.919Z,99913.59
2019-06-20T01:19:13.888Z,99908.52
2019-06-20T01:24:19.864Z,99905.85
2019-06-20T01:29:25.783Z,99907.36
2019-06-20T01:34:31.709Z,99904.75
2019-06-20T01:39:37.799Z,99905.87
2019-06-20T01:44:43.956Z,99904.23
2019-06-20T01:49:50.231Z,99901.80
2019-06-20T01:54:56.298Z,99901.89
2019-06-20T02:00:03.875Z,99898.44
2019-06-20T02:05:11.535Z,99897.23
2019-06-20T02:10:18.208Z,99902.67
2019-06-20T02:15:24.172Z,99907.02
2019-06-20T02:20:50.219Z,99904.49
2019-06-20T02:25:56.190Z,99907.57
2019-06-20T02:31:02.474Z,99899.83
2019-06-20T02:36:08.751Z,99904.17
2019-06-20T02:41:15.331Z,99906.88
2019-06-20T02:46:21.296Z,99903.05
2019-06-20T02:51:28.020Z,99901.37
2019-06-20T02:56:33.994Z,99895.44
2019-06-20T03:01:39.829Z,99896.02
2019-06-20T03:06:46.206Z,99895.91
2019-06-20T03:11:52.145Z,99896.75
2019-06-20T03:16:58.356Z,99894.67
2019-06-20T03:22:04.327Z,99900.05
2019-06-20T03:27:10.410Z,99894.05
2019-06-20T03:32:16.386Z,99890.03
2019-06-20T03:37:22.375Z,99898.77
2019-06-20T03:42:28.326Z,99895.64
2019-06-20T03:47:34.282Z,99890.95
2019-06-20T03:52:40.249Z,99893.60
2019-06-20T03:57:46.221Z,99895.36
2019-06-20T04:02:52.189Z,99897.05
2019-06-20T04:07:58.983Z,99909.20
2019-06-20T04:13:05.421Z,99904.50
2019-06-20T04:18:11.332Z,99909.22
2019-06-20T04:23:17.302Z,99893.89
2019-06-20T04:28:23.173Z,99896.56
2019-06-20T04:33:29.554Z,99900.94
2019-06-20T04:38:35.527Z,99898.95
2019-06-20T04:43:42.932Z,99910.64
2019-06-20T04:48:49.046Z,99915.83
2019-06-20T04:53:55.427Z,99909.75
2019-06-20T04:59:01.562Z,99917.42
2019-06-20T05:04:07.740Z,99913.14
2019-06-20T05:09:13.863Z,99907.87
2019-06-20T05:14:19.939Z,99913.58
2019-06-20T05:19:26.145Z,99914.81
2019-06-20T05:24:32.229Z,99911.31
2019-06-20T05:29:38.518Z,99913.77
2019-06-20T05:34:44.684Z,99904.20
2019-06-20T05:39:51.066Z,99904.00
2019-06-20T05:44:57.382Z,99895.94
2019-06-20T05:50:04.847Z,99891.38
2019-06-20T05:55:11.645Z,99892.37
2019-06-20T06:00:19.926Z,99896.37
2019-06-20T06:05:26.650Z,99897.91
2019-06-20T06:10:33.028Z,99899.02
2019-06-20T06:15:39.151Z,99898.66
2019-06-20T06:20:45.692Z,99909.66
2019-06-20T06:25:52.305Z,99901.31
2019-06-20T06:30:58.354Z,99898.65
2019-06-20T06:36:04.831Z,99885.53
2019-06-20T06:41:11.312Z,99894.31
2019-06-20T06:46:17.646Z,99906.91
2019-06-20T06:51:23.838Z,99908.42
2019-06-20T06:56:30.225Z,99908.06
2019-06-20T07:01:36.987Z,99913.49
2019-06-20T07:06:43.227Z,99908.73
2019-06-20T07:11:49.285Z,99906.22
2019-06-20T07:17:00.325Z,99916.92
2019-06-20T07:22:02.933Z,99905.62
2019-06-20T07:27:09.155Z,99914.14
2019-06-20T07:32:15.235Z,99918.91
2019-06-20T07:37:21.460Z,99921.19
2019-06-20T07:42:27.675Z,99923.20
2019-06-20T07:47:34.160Z,99921.97
2019-06-20T07:52:40.258Z,99916.76
2019-06-20T07:57:46.705Z,99918.55
2019-06-20T08:02:52.867Z,99923.09
2019-06-20T08:08:00.019Z,99921.15
2019-06-20T08:13:11.702Z,99917.87
2019-06-20T08:18:18.109Z,99920.66
2019-06-20T08:23:25.081Z,99920.58
2019-06-20T08:28:31.311Z,99918.77
2019-06-20T08:33:37.526Z,99918.23
2019-06-20T08:38:43.545Z,99917.67
2019-06-20T08:43:49.559Z,99915.66
2019-06-20T08:48:56.616Z,99920.05
2019-06-20T08:54:03.581Z,99924.63
2019-06-20T08:59:23.430Z,99924.77
2019-06-20T09:04:22.202Z,99921.43
2019-06-20T09:09:26.498Z,99921.61
2019-06-20T09:14:32.582Z,99921.08
2019-06-20T09:19:38.640Z,99931.02
2019-06-20T09:24:44.796Z,99928.11
2019-06-20T09:29:51.569Z,99925.39
2019-06-20T09:34:59.503Z,99925.08
2019-06-20T09:40:08.260Z,99919.72
2019-06-20T09:45:18.435Z,99923.30
2019-06-20T09:50:26.021Z,99921.64
2019-06-20T09:55:32.173Z,99921.88
2019-06-20T10:00:40.156Z,99921.92
2019-06-20T10:05:47.619Z,99919.36
2019-06-20T10:10:54.346Z,99920.56
2019-06-20T10:16:00.387Z,99916.61
2019-06-20T10:21:06.812Z,99918.09
2019-06-20T10:26:13.134Z,99924.64
2019-06-20T10:31:19.319Z,99925.84
2019-06-20T10:36:25.494Z,99919.92
2019-06-20T10:41:31.561Z,99909.94
2019-06-20T10:46:37.720Z,99906.33
2019-06-20T10:51:47.655Z,99903.30
2019-06-20T10:56:53.786Z,99894.08
2019-06-20T11:01:59.857Z,99886.45
2019-06-20T11:07:06.071Z,99875.66
2019-06-20T11:12:12.352Z,99873.02
2019-06-20T11:17:18.474Z,99872.20
2019-06-20T11:22:24.541Z,99874.33
2019-06-20T11:27:31.533Z,99859.13
2019-06-20T11:32:38.325Z,99860.89
2019-06-20T11:37:45.446Z,99863.69
2019-06-20T11:42:51.610Z,99850.95
2019-06-20T11:47:57.605Z,99841.84
2019-06-20T11:53:04.062Z,99841.47
2019-06-20T11:58:10.135Z,99836.39
2019-06-20T12:03:19.592Z,99808.93
2019-06-20T12:08:27.964Z,99810.63
2019-06-20T12:13:33.979Z,99803.61
2019-06-20T12:18:41.493Z,99799.16
2019-06-20T12:23:48.998Z,99786.59
2019-06-20T12:28:55.212Z,99799.92
2019-06-20T12:34:01.527Z,99804.14
2019-06-20T12:39:08.761Z,99799.56
2019-06-20T12:44:14.997Z,99798.38
2019-06-20T12:49:23.849Z,99795.66
2019-06-20T12:54:30.250Z,99792.55
2019-06-20T12:59:38.080Z,99796.63
2019-06-20T13:04:44.389Z,99818.93
2019-06-20T13:09:50.731Z,99841.20
2019-06-20T13:14:57.275Z,99844.58
2019-06-20T13:20:04.709Z,99859.10
2019-06-20T13:25:11.699Z,99859.52
2019-06-20T13:30:19.289Z,99860.64
2019-06-20T13:35:25.616Z,99866.89
2019-06-20T13:40:31.865Z,99855.78
2019-06-20T13:45:39.603Z,99859.11
2019-06-20T13:50:47.350Z,99870.22
2019-06-20T13:55:53.870Z,99910.48
2019-06-20T14:01:00.050Z,99924.19
2019-06-20T14:06:06.804Z,99935.86
2019-06-20T14:11:13.053Z,99920.38
2019-06-20T14:16:19.087Z,100008.35
2019-06-20T14:21:25.271Z,99985.89
2019-06-20T14:26:31.347Z,100002.20
2019-06-20T14:31:37.712Z,100012.73
2019-06-20T14:36:44.745Z,100022.65
2019-06-20T14:41:51.711Z,100019.30
2019-06-20T14:46:59.463Z,100022.05
2019-06-20T14:52:05.718Z,100008.60
2019-06-20T14:57:11.671Z,99986.36
2019-06-20T15:02:18.665Z,99957.33
2019-06-20T15:07:25.187Z,99950.81
2019-06-20T15:12:31.738Z,99943.91
2019-06-20T15:17:38.006Z,99930.17
2019-06-20T15:22:46.782Z,99925.77
2019-06-20T15:27:53.903Z,99933.28
2019-06-20T15:33:09.709Z,99920.81
2019-06-20T15:38:07.320Z,99912.27
2019-06-20T15:43:13.315Z,99913.12
2019-06-20T15:48:19.399Z,99913.60
2019-06-20T15:53:25.428Z,99913.16
2019-06-20T15:58:32.772Z,99913.70
2019-06-20T16:03:38.944Z,99921.46
2019-06-20T16:08:45.184Z,99910.00
2019-06-20T16:13:51.387Z,99935.34
2019-06-20T16:18:57.570Z,99970.63
2019-06-20T16:24:03.613Z,100007.93
2019-06-20T16:29:10.050Z,100006.72
2019-06-20T16:34:16.392Z,99942.73
2019-06-20T16:39:22.925Z,99966.17
2019-06-20T16:44:28.967Z,99972.89
2019-06-20T16:49:35.079Z,99956.30
2019-06-20T16:54:41.279Z,99978.25
2019-06-20T16:59:47.759Z,99980.61
2019-06-20T17:04:56.444Z,99983.84
2019-06-20T17:10:00.814Z,100003.80
2019-06-20T17:15:08.044Z,100010.14
2019-06-20T17:20:15.752Z,100014.36
2019-06-20T17:25:22.336Z,100027.34
2019-06-20T17:30:29.027Z,100012.48
2019-06-20T17:35:36.224Z,99995.06
2019-06-20T17:40:42.401Z,99982.92
2019-06-20T17:45:48.569Z,99963.45
2019-06-20T17:50:54.524Z,99977.59
2019-06-20T17:56:00.838Z,99996.45
2019-06-20T18:01:07.288Z,99998.54
2019-06-20T18:06:13.265Z,99990.64
2019-06-20T18:11:19.855Z,99990.52
2019-06-20T18:16:26.111Z,99996.77
2019-06-20T18:21:32.202Z,100007.27
2019-06-20T18:26:38.583Z,100015.89
2019-06-20T18:31:44.654Z,100013.52
2019-06-20T18:36:50.625Z,100015.12
2019-06-20T18:41:57.310Z,100025.14
2019-06-20T18:47:03.521Z,100029.20
2019-06-20T18:52:09.816Z,100068.47
2019-06-20T18:57:16.965Z,100079.52
2019-06-20T19:02:23.196Z,100102.57
2019-06-20T19:07:29.459Z,100110.19
2019-06-20T19:12:35.593Z,100101.30
2019-06-20T19:17:41.695Z,100115.75
2019-06-20T19:22:47.739Z,100137.05
2019-06-20T19:27:53.972Z,100155.66
2019-06-20T19:32:59.985Z,100174.17
2019-06-20T19:38:06.285Z,100167.83
2019-06-20T19:43:12.649Z,100168.95
2019-06-20T19:48:19.132Z,100170.95
2019-06-20T19:53:25.207Z,100156.16
2019-06-20T19:58:31.287Z,100149.86
2019-06-20T20:03:37.453Z,100151.39
2019-06-20T20:08:43.571Z,100143.36
2019-06-20T20:13:49.862Z,100149.61
2019-06-20T20:18:55.883Z,100140.97
2019-06-20T20:24:01.884Z,100130.30
2019-06-20T20:29:09.343Z,100126.27
2019-06-20T20:34:15.628Z,100126.23
2019-06-20T20:39:21.729Z,100109.78
2019-06-20T20:44:27.665Z,100111.73
2019-06-20T20:49:33.478Z,100101.30
2019-06-20T20:54:39.490Z,100093.25
2019-06-20T20:59:45.388Z,100089.75
2019-06-20T21:04:51.363Z,100098.72
2019-06-20T21:09:58.571Z,100100.42
2019-06-20T21:15:07.487Z,100094.24
2019-06-20T21:20:13.970Z,100093.50
2019-06-20T21:25:19.944Z,100091.16
2019-06-20T21:30:26.628Z,100096.11
2019-06-20T21:35:32.716Z,100115.27
2019-06-20T21:40:38.674Z,100127.70
2019-06-20T21:45:45.058Z,100131.83
2019-06-20T21:50:51.588Z,100144.78
2019-06-20T21:55:57.710Z,100147.96
2019-06-20T22:01:04.631Z,100158.17
2019-06-20T22:06:23.204Z,100168.30
2019-06-20T22:11:18.901Z,100177.95
2019-06-20T22:16:24.870Z,100190.13
2019-06-20T22:21:31.053Z,100196.45
2019-06-20T22:26:37.122Z,100205.19
2019-06-20T22:31:43.303Z,100203.83
2019-06-20T22:36:49.266Z,100217.22
2019-06-20T22:41:55.460Z,100209.48
2019-06-20T22:47:01.759Z,100203.68
2019-06-20T22:52:07.892Z,100202.15
2019-06-20T22:57:13.764Z,100204.41
2019-06-20T23:02:19.794Z,100209.61
2019-06-20T23:07:25.808Z,100215.80
2019-06-20T23:12:31.719Z,100214.17
2019-06-20T23:17:37.679Z,100214.33
2019-06-20T23:22:43.512Z,100211.62
2019-06-20T23:27:49.489Z,100211.17
2019-06-20T23:32:55.461Z,100206.61
2019-06-20T23:38:01.427Z,100220.03
2019-06-20T23:43:07.501Z,100211.19
2019-06-20T23:48:13.470Z,100195.72
2019-06-20T23:53:26.590Z,100190.98
2019-06-20T23:58:32.588Z,100203.45
